sensor_id;sensor_type;location;lat;lon;timestamp;P1;durP1;ratioP1;P2;durP2;ratioP2
8574;SDS011;4325;42.520;27.448;2022-08-01T00:01:46;13.00;;;11.83;;
8574;SDS011;4325;42.520;27.448;2022-08-01T00:04:13;13.63;;;12.37;;
8574;SDS011;4325;42.520;27.448;2022-08-01T00:06:40;13.00;;;11.90;;
8574;SDS011;4325;42.520;27.448;2022-08-01T00:09:07;14.00;;;12.90;;
8574;SDS011;4325;42.520;27.448;2022-08-01T00:11:35;13.90;;;12.67;;
8574;SDS011;4325;42.520;27.448;2022-08-01T00:14:02;14.50;;;13.00;;
8574;SDS011;4325;42.520;27.448;2022-08-01T00:16:29;20.93;;;16.33;;
8574;SDS011;4325;42.520;27.448;2022-08-01T00:18:56;14.77;;;13.57;;
8574;SDS011;4325;42.520;27.448;2022-08-01T00:21:23;13.93;;;12.57;;
8574;SDS011;4325;42.520;27.448;2022-08-01T00:23:50;14.90;;;13.53;;
8574;SDS011;4325;42.520;27.448;2022-08-01T00:26:17;19.77;;;18.00;;
8574;SDS011;4325;42.520;27.448;2022-08-01T00:28:45;14.93;;;13.70;;
8574;SDS011;4325;42.520;27.448;2022-08-01T00:31:12;16.03;;;14.70;;
8574;SDS011;4325;42.520;27.448;2022-08-01T00:33:39;14.53;;;13.23;;
8574;SDS011;4325;42.520;27.448;2022-08-01T00:36:05;15.13;;;13.77;;
8574;SDS011;4325;42.520;27.448;2022-08-01T00:38:32;14.70;;;13.40;;
8574;SDS011;4325;42.520;27.448;2022-08-01T00:40:59;17.47;;;14.63;;
8574;SDS011;4325;42.520;27.448;2022-08-01T00:43:26;17.53;;;13.50;;
8574;SDS011;4325;42.520;27.448;2022-08-01T00:45:54;16.47;;;14.20;;
8574;SDS011;4325;42.520;27.448;2022-08-01T00:48:21;14.90;;;13.53;;
8574;SDS011;4325;42.520;27.448;2022-08-01T00:50:48;16.77;;;14.77;;
8574;SDS011;4325;42.520;27.448;2022-08-01T00:53:16;16.27;;;14.67;;
8574;SDS011;4325;42.520;27.448;2022-08-01T00:55:42;17.57;;;15.37;;
8574;SDS011;4325;42.520;27.448;2022-08-01T00:58:09;16.87;;;15.23;;
8574;SDS011;4325;42.520;27.448;2022-08-01T01:00:36;16.53;;;14.93;;
8574;SDS011;4325;42.520;27.448;2022-08-01T01:03:05;16.27;;;14.67;;
8574;SDS011;4325;42.520;27.448;2022-08-01T01:05:32;17.80;;;15.93;;
8574;SDS011;4325;42.520;27.448;2022-08-01T01:08:07;16.63;;;14.80;;
8574;SDS011;4325;42.520;27.448;2022-08-01T01:10:43;16.93;;;15.30;;
8574;SDS011;4325;42.520;27.448;2022-08-01T01:13:20;17.10;;;15.60;;
8574;SDS011;4325;42.520;27.448;2022-08-01T01:15:54;17.83;;;16.13;;
8574;SDS011;4325;42.520;27.448;2022-08-01T01:18:27;19.47;;;17.03;;
8574;SDS011;4325;42.520;27.448;2022-08-01T01:21:00;18.47;;;16.70;;
8574;SDS011;4325;42.520;27.448;2022-08-01T01:23:45;17.80;;;16.20;;
8574;SDS011;4325;42.520;27.448;2022-08-01T01:26:28;20.87;;;17.80;;
8574;SDS011;4325;42.520;27.448;2022-08-01T01:29:08;18.47;;;16.87;;
8574;SDS011;4325;42.520;27.448;2022-08-01T01:31:41;18.93;;;16.73;;
8574;SDS011;4325;42.520;27.448;2022-08-01T01:34:12;19.23;;;17.33;;
8574;SDS011;4325;42.520;27.448;2022-08-01T01:36:42;20.20;;;16.93;;
8574;SDS011;4325;42.520;27.448;2022-08-01T01:39:11;19.13;;;17.33;;
8574;SDS011;4325;42.520;27.448;2022-08-01T01:41:40;18.50;;;16.80;;
8574;SDS011;4325;42.520;27.448;2022-08-01T01:44:09;18.63;;;16.80;;
8574;SDS011;4325;42.520;27.448;2022-08-01T01:46:37;18.73;;;16.83;;
8574;SDS011;4325;42.520;27.448;2022-08-01T01:49:04;21.63;;;17.70;;
8574;SDS011;4325;42.520;27.448;2022-08-01T01:51:35;19.27;;;17.27;;
8574;SDS011;4325;42.520;27.448;2022-08-01T01:54:04;20.37;;;18.43;;
8574;SDS011;4325;42.520;27.448;2022-08-01T01:56:33;19.73;;;17.70;;
8574;SDS011;4325;42.520;27.448;2022-08-01T01:59:15;19.03;;;17.27;;
8574;SDS011;4325;42.520;27.448;2022-08-01T02:01:44;19.97;;;17.97;;
8574;SDS011;4325;42.520;27.448;2022-08-01T02:04:14;18.80;;;16.67;;
8574;SDS011;4325;42.520;27.448;2022-08-01T02:06:42;21.83;;;19.63;;
8574;SDS011;4325;42.520;27.448;2022-08-01T02:09:11;21.97;;;18.03;;
8574;SDS011;4325;42.520;27.448;2022-08-01T02:11:42;18.53;;;16.77;;
8574;SDS011;4325;42.520;27.448;2022-08-01T02:14:10;19.63;;;17.83;;
8574;SDS011;4325;42.520;27.448;2022-08-01T02:16:41;18.07;;;16.47;;
8574;SDS011;4325;42.520;27.448;2022-08-01T02:19:11;21.30;;;16.87;;
8574;SDS011;4325;42.520;27.448;2022-08-01T02:21:38;16.73;;;15.17;;
8574;SDS011;4325;42.520;27.448;2022-08-01T02:24:12;18.03;;;15.57;;
8574;SDS011;4325;42.520;27.448;2022-08-01T02:26:42;16.97;;;15.17;;
8574;SDS011;4325;42.520;27.448;2022-08-01T02:29:21;20.07;;;15.70;;
8574;SDS011;4325;42.520;27.448;2022-08-01T02:31:54;18.40;;;16.33;;
8574;SDS011;4325;42.520;27.448;2022-08-01T02:34:22;17.50;;;15.63;;
8574;SDS011;4325;42.520;27.448;2022-08-01T02:36:51;17.07;;;15.27;;
8574;SDS011;4325;42.520;27.448;2022-08-01T02:39:21;22.37;;;20.17;;
8574;SDS011;4325;42.520;27.448;2022-08-01T02:41:53;21.63;;;16.23;;
8574;SDS011;4325;42.520;27.448;2022-08-01T02:44:25;18.30;;;16.20;;
8574;SDS011;4325;42.520;27.448;2022-08-01T02:46:58;18.57;;;16.77;;
8574;SDS011;4325;42.520;27.448;2022-08-01T02:49:28;18.30;;;16.77;;
8574;SDS011;4325;42.520;27.448;2022-08-01T02:51:57;19.53;;;17.73;;
8574;SDS011;4325;42.520;27.448;2022-08-01T02:54:26;21.40;;;16.40;;
8574;SDS011;4325;42.520;27.448;2022-08-01T02:56:56;18.37;;;16.57;;
8574;SDS011;4325;42.520;27.448;2022-08-01T02:59:25;17.27;;;15.47;;
8574;SDS011;4325;42.520;27.448;2022-08-01T03:01:55;22.90;;;16.43;;
8574;SDS011;4325;42.520;27.448;2022-08-01T03:04:25;18.70;;;14.47;;
8574;SDS011;4325;42.520;27.448;2022-08-01T03:06:54;16.03;;;14.53;;
8574;SDS011;4325;42.520;27.448;2022-08-01T03:09:23;15.27;;;13.70;;
8574;SDS011;4325;42.520;27.448;2022-08-01T03:11:52;12.80;;;11.57;;
8574;SDS011;4325;42.520;27.448;2022-08-01T03:14:23;13.27;;;11.67;;
8574;SDS011;4325;42.520;27.448;2022-08-01T03:16:51;12.40;;;11.30;;
8574;SDS011;4325;42.520;27.448;2022-08-01T03:19:22;13.57;;;11.53;;
8574;SDS011;4325;42.520;27.448;2022-08-01T03:21:52;12.67;;;11.37;;
8574;SDS011;4325;42.520;27.448;2022-08-01T03:24:23;15.23;;;11.37;;
8574;SDS011;4325;42.520;27.448;2022-08-01T03:26:52;14.10;;;10.17;;
8574;SDS011;4325;42.520;27.448;2022-08-01T03:29:22;14.10;;;9.83;;
8574;SDS011;4325;42.520;27.448;2022-08-01T03:31:51;10.53;;;9.60;;
8574;SDS011;4325;42.520;27.448;2022-08-01T03:34:19;9.30;;;8.50;;
8574;SDS011;4325;42.520;27.448;2022-08-01T03:36:49;10.07;;;8.30;;
8574;SDS011;4325;42.520;27.448;2022-08-01T03:39:22;16.17;;;7.83;;
8574;SDS011;4325;42.520;27.448;2022-08-01T03:41:55;9.77;;;6.90;;
8574;SDS011;4325;42.520;27.448;2022-08-01T03:44:27;7.93;;;7.17;;
8574;SDS011;4325;42.520;27.448;2022-08-01T03:47:00;8.40;;;7.60;;
8574;SDS011;4325;42.520;27.448;2022-08-01T03:49:30;8.20;;;6.57;;
8574;SDS011;4325;42.520;27.448;2022-08-01T03:52:01;7.60;;;6.50;;
8574;SDS011;4325;42.520;27.448;2022-08-01T03:54:35;10.03;;;6.87;;
8574;SDS011;4325;42.520;27.448;2022-08-01T03:57:04;8.63;;;7.83;;
8574;SDS011;4325;42.520;27.448;2022-08-01T03:59:32;8.00;;;5.93;;
8574;SDS011;4325;42.520;27.448;2022-08-01T04:02:02;7.10;;;5.80;;
8574;SDS011;4325;42.520;27.448;2022-08-01T04:04:30;15.37;;;6.13;;
8574;SDS011;4325;42.520;27.448;2022-08-01T04:06:57;9.90;;;5.73;;
8574;SDS011;4325;42.520;27.448;2022-08-01T04:09:30;8.13;;;6.10;;
8574;SDS011;4325;42.520;27.448;2022-08-01T04:11:57;7.57;;;5.10;;
8574;SDS011;4325;42.520;27.448;2022-08-01T04:14:25;7.93;;;6.07;;
8574;SDS011;4325;42.520;27.448;2022-08-01T04:16:52;7.77;;;6.07;;
8574;SDS011;4325;42.520;27.448;2022-08-01T04:19:19;8.87;;;5.70;;
8574;SDS011;4325;42.520;27.448;2022-08-01T04:21:46;7.93;;;5.60;;
8574;SDS011;4325;42.520;27.448;2022-08-01T04:24:18;5.63;;;4.83;;
8574;SDS011;4325;42.520;27.448;2022-08-01T04:26:48;6.83;;;4.80;;
8574;SDS011;4325;42.520;27.448;2022-08-01T04:29:17;5.63;;;4.93;;
8574;SDS011;4325;42.520;27.448;2022-08-01T04:31:47;6.53;;;4.90;;
8574;SDS011;4325;42.520;27.448;2022-08-01T04:34:15;5.67;;;4.90;;
8574;SDS011;4325;42.520;27.448;2022-08-01T04:36:46;12.37;;;5.37;;
8574;SDS011;4325;42.520;27.448;2022-08-01T04:39:14;7.93;;;5.43;;
8574;SDS011;4325;42.520;27.448;2022-08-01T04:41:44;8.67;;;5.50;;
8574;SDS011;4325;42.520;27.448;2022-08-01T04:44:14;7.03;;;5.23;;
8574;SDS011;4325;42.520;27.448;2022-08-01T04:46:41;8.50;;;5.53;;
8574;SDS011;4325;42.520;27.448;2022-08-01T04:49:10;9.20;;;5.00;;
8574;SDS011;4325;42.520;27.448;2022-08-01T04:51:49;6.17;;;5.20;;
8574;SDS011;4325;42.520;27.448;2022-08-01T04:54:17;6.33;;;4.50;;
8574;SDS011;4325;42.520;27.448;2022-08-01T04:56:44;5.17;;;4.13;;
8574;SDS011;4325;42.520;27.448;2022-08-01T04:59:11;6.97;;;4.17;;
8574;SDS011;4325;42.520;27.448;2022-08-01T05:01:56;4.27;;;3.50;;
8574;SDS011;4325;42.520;27.448;2022-08-01T05:04:23;5.47;;;4.40;;
8574;SDS011;4325;42.520;27.448;2022-08-01T05:06:50;11.13;;;4.10;;
8574;SDS011;4325;42.520;27.448;2022-08-01T05:09:17;7.40;;;3.70;;
8574;SDS011;4325;42.520;27.448;2022-08-01T05:11:44;4.00;;;3.60;;
8574;SDS011;4325;42.520;27.448;2022-08-01T05:14:11;7.57;;;3.90;;
8574;SDS011;4325;42.520;27.448;2022-08-01T05:16:37;6.40;;;3.80;;
8574;SDS011;4325;42.520;27.448;2022-08-01T05:19:06;5.07;;;3.00;;
8574;SDS011;4325;42.520;27.448;2022-08-01T05:21:33;3.30;;;2.80;;
8574;SDS011;4325;42.520;27.448;2022-08-01T05:24:00;3.33;;;2.87;;
8574;SDS011;4325;42.520;27.448;2022-08-01T05:26:27;9.30;;;2.70;;
8574;SDS011;4325;42.520;27.448;2022-08-01T05:28:54;5.30;;;2.63;;
8574;SDS011;4325;42.520;27.448;2022-08-01T05:31:21;2.57;;;2.37;;
8574;SDS011;4325;42.520;27.448;2022-08-01T05:33:48;5.70;;;2.63;;
8574;SDS011;4325;42.520;27.448;2022-08-01T05:36:16;6.90;;;2.97;;
8574;SDS011;4325;42.520;27.448;2022-08-01T05:38:43;2.50;;;2.30;;
8574;SDS011;4325;42.520;27.448;2022-08-01T05:41:10;5.80;;;3.20;;
8574;SDS011;4325;42.520;27.448;2022-08-01T05:43:37;3.47;;;3.17;;
8574;SDS011;4325;42.520;27.448;2022-08-01T05:46:03;2.53;;;2.20;;
8574;SDS011;4325;42.520;27.448;2022-08-01T05:48:30;2.67;;;2.47;;
8574;SDS011;4325;42.520;27.448;2022-08-01T05:50:57;2.80;;;2.50;;
8574;SDS011;4325;42.520;27.448;2022-08-01T05:53:26;5.70;;;2.70;;
8574;SDS011;4325;42.520;27.448;2022-08-01T05:55:53;2.73;;;2.30;;
8574;SDS011;4325;42.520;27.448;2022-08-01T05:58:20;7.57;;;2.60;;
8574;SDS011;4325;42.520;27.448;2022-08-01T06:00:47;4.10;;;2.90;;
8574;SDS011;4325;42.520;27.448;2022-08-01T06:03:14;2.87;;;2.20;;
8574;SDS011;4325;42.520;27.448;2022-08-01T06:05:40;2.80;;;2.27;;
8574;SDS011;4325;42.520;27.448;2022-08-01T06:08:07;7.40;;;2.77;;
8574;SDS011;4325;42.520;27.448;2022-08-01T06:10:36;5.60;;;2.40;;
8574;SDS011;4325;42.520;27.448;2022-08-01T06:13:02;2.50;;;2.30;;
8574;SDS011;4325;42.520;27.448;2022-08-01T06:15:29;2.57;;;2.37;;
8574;SDS011;4325;42.520;27.448;2022-08-01T06:17:56;4.60;;;3.07;;
8574;SDS011;4325;42.520;27.448;2022-08-01T06:20:23;6.87;;;2.80;;
8574;SDS011;4325;42.520;27.448;2022-08-01T06:22:50;5.70;;;3.23;;
8574;SDS011;4325;42.520;27.448;2022-08-01T06:25:17;3.67;;;3.17;;
8574;SDS011;4325;42.520;27.448;2022-08-01T06:27:46;7.60;;;3.03;;
8574;SDS011;4325;42.520;27.448;2022-08-01T06:30:12;5.63;;;2.80;;
8574;SDS011;4325;42.520;27.448;2022-08-01T06:32:39;3.03;;;2.80;;
8574;SDS011;4325;42.520;27.448;2022-08-01T06:35:07;5.90;;;3.17;;
8574;SDS011;4325;42.520;27.448;2022-08-01T06:37:34;5.80;;;3.83;;
8574;SDS011;4325;42.520;27.448;2022-08-01T06:40:01;10.30;;;3.33;;
8574;SDS011;4325;42.520;27.448;2022-08-01T06:42:28;8.47;;;3.73;;
8574;SDS011;4325;42.520;27.448;2022-08-01T06:44:58;4.53;;;3.10;;
8574;SDS011;4325;42.520;27.448;2022-08-01T06:47:25;10.87;;;3.63;;
8574;SDS011;4325;42.520;27.448;2022-08-01T06:49:51;4.30;;;3.27;;
8574;SDS011;4325;42.520;27.448;2022-08-01T06:52:18;8.57;;;4.03;;
8574;SDS011;4325;42.520;27.448;2022-08-01T06:54:45;5.13;;;3.73;;
8574;SDS011;4325;42.520;27.448;2022-08-01T06:57:12;7.60;;;3.43;;
8574;SDS011;4325;42.520;27.448;2022-08-01T06:59:39;7.77;;;2.70;;
8574;SDS011;4325;42.520;27.448;2022-08-01T07:02:07;4.70;;;2.40;;
8574;SDS011;4325;42.520;27.448;2022-08-01T07:04:34;10.67;;;2.70;;
8574;SDS011;4325;42.520;27.448;2022-08-01T07:07:01;4.33;;;2.57;;
8574;SDS011;4325;42.520;27.448;2022-08-01T07:09:28;4.97;;;2.80;;
8574;SDS011;4325;42.520;27.448;2022-08-01T07:11:55;4.50;;;2.60;;
8574;SDS011;4325;42.520;27.448;2022-08-01T07:14:22;7.97;;;2.80;;
8574;SDS011;4325;42.520;27.448;2022-08-01T07:16:49;2.83;;;2.63;;
8574;SDS011;4325;42.520;27.448;2022-08-01T07:19:18;4.87;;;2.23;;
8574;SDS011;4325;42.520;27.448;2022-08-01T07:21:45;4.60;;;2.07;;
8574;SDS011;4325;42.520;27.448;2022-08-01T07:24:12;3.83;;;2.27;;
8574;SDS011;4325;42.520;27.448;2022-08-01T07:26:40;2.80;;;2.60;;
8574;SDS011;4325;42.520;27.448;2022-08-01T07:29:08;10.67;;;2.50;;
8574;SDS011;4325;42.520;27.448;2022-08-01T07:31:35;5.43;;;2.33;;
8574;SDS011;4325;42.520;27.448;2022-08-01T07:34:02;4.10;;;2.30;;
8574;SDS011;4325;42.520;27.448;2022-08-01T07:36:30;3.67;;;2.60;;
8574;SDS011;4325;42.520;27.448;2022-08-01T07:38:57;9.40;;;2.47;;
8574;SDS011;4325;42.520;27.448;2022-08-01T07:41:24;4.37;;;2.87;;
8574;SDS011;4325;42.520;27.448;2022-08-01T07:43:51;8.50;;;2.47;;
8574;SDS011;4325;42.520;27.448;2022-08-01T07:46:17;5.03;;;2.33;;
8574;SDS011;4325;42.520;27.448;2022-08-01T07:48:44;5.20;;;2.50;;
8574;SDS011;4325;42.520;27.448;2022-08-01T07:51:11;5.80;;;2.40;;
8574;SDS011;4325;42.520;27.448;2022-08-01T07:53:39;5.30;;;2.67;;
8574;SDS011;4325;42.520;27.448;2022-08-01T07:56:06;6.27;;;2.30;;
8574;SDS011;4325;42.520;27.448;2022-08-01T07:58:33;7.57;;;2.10;;
8574;SDS011;4325;42.520;27.448;2022-08-01T08:01:00;4.40;;;2.20;;
8574;SDS011;4325;42.520;27.448;2022-08-01T08:03:27;5.17;;;2.10;;
8574;SDS011;4325;42.520;27.448;2022-08-01T08:05:53;3.00;;;2.50;;
8574;SDS011;4325;42.520;27.448;2022-08-01T08:08:20;7.40;;;2.80;;
8574;SDS011;4325;42.520;27.448;2022-08-01T08:10:48;4.10;;;2.00;;
8574;SDS011;4325;42.520;27.448;2022-08-01T08:13:15;2.40;;;2.20;;
8574;SDS011;4325;42.520;27.448;2022-08-01T08:15:42;4.83;;;2.53;;
8574;SDS011;4325;42.520;27.448;2022-08-01T08:18:09;6.30;;;2.40;;
8574;SDS011;4325;42.520;27.448;2022-08-01T08:20:36;4.60;;;2.10;;
8574;SDS011;4325;42.520;27.448;2022-08-01T08:23:04;5.30;;;2.23;;
8574;SDS011;4325;42.520;27.448;2022-08-01T08:25:53;4.30;;;2.47;;
8574;SDS011;4325;42.520;27.448;2022-08-01T08:28:19;6.97;;;2.57;;
8574;SDS011;4325;42.520;27.448;2022-08-01T08:30:46;8.20;;;2.47;;
8574;SDS011;4325;42.520;27.448;2022-08-01T08:33:13;8.67;;;2.50;;
8574;SDS011;4325;42.520;27.448;2022-08-01T08:35:40;2.57;;;2.30;;
8574;SDS011;4325;42.520;27.448;2022-08-01T08:38:07;3.50;;;2.20;;
8574;SDS011;4325;42.520;27.448;2022-08-01T08:40:35;3.57;;;2.40;;
8574;SDS011;4325;42.520;27.448;2022-08-01T08:43:05;2.83;;;2.57;;
8574;SDS011;4325;42.520;27.448;2022-08-01T08:45:32;3.23;;;2.43;;
8574;SDS011;4325;42.520;27.448;2022-08-01T08:47:59;2.83;;;2.13;;
8574;SDS011;4325;42.520;27.448;2022-08-01T08:50:26;5.67;;;2.17;;
8574;SDS011;4325;42.520;27.448;2022-08-01T08:52:54;6.73;;;2.40;;
8574;SDS011;4325;42.520;27.448;2022-08-01T08:55:21;10.03;;;2.50;;
8574;SDS011;4325;42.520;27.448;2022-08-01T08:57:49;8.07;;;2.10;;
8574;SDS011;4325;42.520;27.448;2022-08-01T09:00:19;2.83;;;2.10;;
8574;SDS011;4325;42.520;27.448;2022-08-01T09:02:46;6.20;;;2.30;;
8574;SDS011;4325;42.520;27.448;2022-08-01T09:05:15;2.43;;;2.00;;
8574;SDS011;4325;42.520;27.448;2022-08-01T09:07:42;7.03;;;2.20;;
8574;SDS011;4325;42.520;27.448;2022-08-01T09:10:09;9.40;;;2.30;;
8574;SDS011;4325;42.520;27.448;2022-08-01T09:12:36;2.40;;;2.13;;
8574;SDS011;4325;42.520;27.448;2022-08-01T09:15:03;4.03;;;2.20;;
8574;SDS011;4325;42.520;27.448;2022-08-01T09:17:40;2.03;;;1.80;;
8574;SDS011;4325;42.520;27.448;2022-08-01T09:20:07;4.07;;;1.97;;
8574;SDS011;4325;42.520;27.448;2022-08-01T09:22:49;5.73;;;2.10;;
8574;SDS011;4325;42.520;27.448;2022-08-01T09:25:16;7.10;;;2.40;;
8574;SDS011;4325;42.520;27.448;2022-08-01T09:27:42;9.10;;;2.30;;
8574;SDS011;4325;42.520;27.448;2022-08-01T09:30:10;3.37;;;2.00;;
8574;SDS011;4325;42.520;27.448;2022-08-01T09:32:56;8.77;;;2.20;;
8574;SDS011;4325;42.520;27.448;2022-08-01T09:35:26;3.13;;;2.07;;
8574;SDS011;4325;42.520;27.448;2022-08-01T09:38:15;2.47;;;1.80;;
8574;SDS011;4325;42.520;27.448;2022-08-01T09:40:44;3.58;;;2.00;;
8574;SDS011;4325;42.520;27.448;2022-08-01T09:43:12;3.25;;;2.20;;
8574;SDS011;4325;42.520;27.448;2022-08-01T09:45:39;2.50;;;1.80;;
8574;SDS011;4325;42.520;27.448;2022-08-01T09:48:08;4.00;;;2.57;;
8574;SDS011;4325;42.520;27.448;2022-08-01T09:50:40;2.38;;;2.17;;
8574;SDS011;4325;42.520;27.448;2022-08-01T09:53:08;4.32;;;1.80;;
8574;SDS011;4325;42.520;27.448;2022-08-01T09:55:35;3.38;;;1.88;;
8574;SDS011;4325;42.520;27.448;2022-08-01T09:58:02;1.98;;;1.70;;
8574;SDS011;4325;42.520;27.448;2022-08-01T10:00:30;2.45;;;1.73;;
8574;SDS011;4325;42.520;27.448;2022-08-01T10:02:58;2.75;;;2.55;;
8574;SDS011;4325;42.520;27.448;2022-08-01T10:05:33;3.25;;;1.55;;
8574;SDS011;4325;42.520;27.448;2022-08-01T10:08:02;2.28;;;2.03;;
8574;SDS011;4325;42.520;27.448;2022-08-01T10:10:30;3.78;;;1.63;;
8574;SDS011;4325;42.520;27.448;2022-08-01T10:12:57;1.95;;;1.50;;
8574;SDS011;4325;42.520;27.448;2022-08-01T10:15:26;3.50;;;1.60;;
8574;SDS011;4325;42.520;27.448;2022-08-01T10:17:54;5.20;;;2.03;;
8574;SDS011;4325;42.520;27.448;2022-08-01T10:20:24;2.92;;;1.80;;
8574;SDS011;4325;42.520;27.448;2022-08-01T10:22:54;2.27;;;1.80;;
8574;SDS011;4325;42.520;27.448;2022-08-01T10:25:21;5.93;;;2.23;;
8574;SDS011;4325;42.520;27.448;2022-08-01T10:27:49;4.47;;;1.77;;
8574;SDS011;4325;42.520;27.448;2022-08-01T10:30:20;3.00;;;1.80;;
8574;SDS011;4325;42.520;27.448;2022-08-01T10:32:47;2.97;;;1.80;;
8574;SDS011;4325;42.520;27.448;2022-08-01T10:35:14;3.33;;;1.92;;
8574;SDS011;4325;42.520;27.448;2022-08-01T10:37:42;4.50;;;1.92;;
8574;SDS011;4325;42.520;27.448;2022-08-01T10:40:12;3.80;;;2.17;;
8574;SDS011;4325;42.520;27.448;2022-08-01T10:42:40;5.60;;;1.92;;
8574;SDS011;4325;42.520;27.448;2022-08-01T10:45:09;3.17;;;1.88;;
8574;SDS011;4325;42.520;27.448;2022-08-01T10:47:38;4.97;;;2.50;;
8574;SDS011;4325;42.520;27.448;2022-08-01T10:50:11;2.23;;;2.00;;
8574;SDS011;4325;42.520;27.448;2022-08-01T10:52:41;2.57;;;1.90;;
8574;SDS011;4325;42.520;27.448;2022-08-01T10:55:30;3.27;;;2.17;;
8574;SDS011;4325;42.520;27.448;2022-08-01T10:58:12;4.50;;;2.33;;
8574;SDS011;4325;42.520;27.448;2022-08-01T11:00:39;6.07;;;2.20;;
8574;SDS011;4325;42.520;27.448;2022-08-01T11:03:06;3.07;;;1.70;;
8574;SDS011;4325;42.520;27.448;2022-08-01T11:05:33;4.47;;;1.73;;
8574;SDS011;4325;42.520;27.448;2022-08-01T11:08:02;2.30;;;1.63;;
8574;SDS011;4325;42.520;27.448;2022-08-01T11:10:37;3.00;;;2.00;;
8574;SDS011;4325;42.520;27.448;2022-08-01T11:13:08;3.55;;;2.00;;
8574;SDS011;4325;42.520;27.448;2022-08-01T11:15:36;1.83;;;1.70;;
8574;SDS011;4325;42.520;27.448;2022-08-01T11:18:04;4.38;;;2.00;;
8574;SDS011;4325;42.520;27.448;2022-08-01T11:20:58;1.80;;;1.70;;
8574;SDS011;4325;42.520;27.448;2022-08-01T11:23:26;2.97;;;1.85;;
8574;SDS011;4325;42.520;27.448;2022-08-01T11:31:37;6.20;;;2.10;;
8574;SDS011;4325;42.520;27.448;2022-08-01T11:34:05;4.78;;;1.73;;
8574;SDS011;4325;42.520;27.448;2022-08-01T11:36:32;2.80;;;1.42;;
8574;SDS011;4325;42.520;27.448;2022-08-01T11:39:14;3.33;;;1.50;;
8574;SDS011;4325;42.520;27.448;2022-08-01T11:41:45;4.35;;;1.60;;
8574;SDS011;4325;42.520;27.448;2022-08-01T11:44:14;3.65;;;1.40;;
8574;SDS011;4325;42.520;27.448;2022-08-01T11:46:46;6.47;;;1.90;;
8574;SDS011;4325;42.520;27.448;2022-08-01T11:52:15;1.90;;;1.70;;
8574;SDS011;4325;42.520;27.448;2022-08-01T11:54:43;1.65;;;1.55;;
8574;SDS011;4325;42.520;27.448;2022-08-01T11:57:14;3.25;;;1.70;;
8574;SDS011;4325;42.520;27.448;2022-08-01T11:59:45;3.80;;;1.60;;
8574;SDS011;4325;42.520;27.448;2022-08-01T12:02:14;7.07;;;1.60;;
8574;SDS011;4325;42.520;27.448;2022-08-01T12:04:46;4.93;;;1.90;;
8574;SDS011;4325;42.520;27.448;2022-08-01T12:07:17;3.28;;;1.67;;
8574;SDS011;4325;42.520;27.448;2022-08-01T12:09:45;6.70;;;1.83;;
8574;SDS011;4325;42.520;27.448;2022-08-01T12:12:16;3.13;;;1.83;;
8574;SDS011;4325;42.520;27.448;2022-08-01T12:14:44;4.88;;;1.80;;
8574;SDS011;4325;42.520;27.448;2022-08-01T12:17:19;5.72;;;2.17;;
8574;SDS011;4325;42.520;27.448;2022-08-01T12:19:48;8.85;;;2.15;;
8574;SDS011;4325;42.520;27.448;2022-08-01T12:22:15;5.63;;;2.17;;
8574;SDS011;4325;42.520;27.448;2022-08-01T12:24:42;4.22;;;1.92;;
8574;SDS011;4325;42.520;27.448;2022-08-01T12:27:10;4.60;;;1.80;;
8574;SDS011;4325;42.520;27.448;2022-08-01T12:29:40;5.03;;;2.20;;
8574;SDS011;4325;42.520;27.448;2022-08-01T12:32:22;1.97;;;1.80;;
8574;SDS011;4325;42.520;27.448;2022-08-01T12:34:50;4.57;;;1.93;;
8574;SDS011;4325;42.520;27.448;2022-08-01T12:37:17;1.93;;;1.70;;
8574;SDS011;4325;42.520;27.448;2022-08-01T12:39:45;3.80;;;2.30;;
8574;SDS011;4325;42.520;27.448;2022-08-01T12:42:13;8.53;;;2.20;;
8574;SDS011;4325;42.520;27.448;2022-08-01T12:44:41;7.38;;;1.80;;
8574;SDS011;4325;42.520;27.448;2022-08-01T12:47:10;4.53;;;2.08;;
8574;SDS011;4325;42.520;27.448;2022-08-01T12:49:39;1.65;;;1.38;;
8574;SDS011;4325;42.520;27.448;2022-08-01T12:52:09;2.88;;;1.98;;
8574;SDS011;4325;42.520;27.448;2022-08-01T12:57:33;2.88;;;2.22;;
8574;SDS011;4325;42.520;27.448;2022-08-01T13:02:59;2.10;;;1.83;;
8574;SDS011;4325;42.520;27.448;2022-08-01T13:05:28;7.70;;;1.52;;
8574;SDS011;4325;42.520;27.448;2022-08-01T13:08:09;1.50;;;1.40;;
8574;SDS011;4325;42.520;27.448;2022-08-01T13:10:36;5.13;;;1.98;;
8574;SDS011;4325;42.520;27.448;2022-08-01T13:13:03;2.10;;;1.45;;
8574;SDS011;4325;42.520;27.448;2022-08-01T13:15:32;4.72;;;1.90;;
8574;SDS011;4325;42.520;27.448;2022-08-01T13:18:09;6.93;;;2.00;;
8574;SDS011;4325;42.520;27.448;2022-08-01T13:21:01;3.47;;;1.50;;
8574;SDS011;4325;42.520;27.448;2022-08-01T13:23:33;5.00;;;1.92;;
8574;SDS011;4325;42.520;27.448;2022-08-01T13:26:00;4.90;;;1.50;;
8574;SDS011;4325;42.520;27.448;2022-08-01T13:28:27;2.85;;;1.30;;
8574;SDS011;4325;42.520;27.448;2022-08-01T13:30:58;2.85;;;1.27;;
8574;SDS011;4325;42.520;27.448;2022-08-01T13:33:26;2.95;;;1.73;;
8574;SDS011;4325;42.520;27.448;2022-08-01T13:36:05;5.20;;;1.83;;
8574;SDS011;4325;42.520;27.448;2022-08-01T13:38:33;3.17;;;1.60;;
8574;SDS011;4325;42.520;27.448;2022-08-01T13:41:17;2.58;;;1.50;;
8574;SDS011;4325;42.520;27.448;2022-08-01T13:43:43;3.50;;;1.75;;
8574;SDS011;4325;42.520;27.448;2022-08-01T13:46:12;2.72;;;1.65;;
8574;SDS011;4325;42.520;27.448;2022-08-01T13:48:39;4.50;;;1.70;;
8574;SDS011;4325;42.520;27.448;2022-08-01T13:51:05;3.08;;;1.73;;
8574;SDS011;4325;42.520;27.448;2022-08-01T13:53:32;6.40;;;1.60;;
8574;SDS011;4325;42.520;27.448;2022-08-01T13:56:00;4.32;;;1.73;;
8574;SDS011;4325;42.520;27.448;2022-08-01T13:58:27;2.72;;;1.83;;
8574;SDS011;4325;42.520;27.448;2022-08-01T14:00:54;2.35;;;1.60;;
8574;SDS011;4325;42.520;27.448;2022-08-01T14:03:23;2.13;;;1.90;;
8574;SDS011;4325;42.520;27.448;2022-08-01T14:05:49;2.75;;;1.70;;
8574;SDS011;4325;42.520;27.448;2022-08-01T14:08:17;3.47;;;1.77;;
8574;SDS011;4325;42.520;27.448;2022-08-01T14:10:43;5.57;;;1.73;;
8574;SDS011;4325;42.520;27.448;2022-08-01T14:13:10;4.60;;;1.98;;
8574;SDS011;4325;42.520;27.448;2022-08-01T14:15:37;4.43;;;2.30;;
8574;SDS011;4325;42.520;27.448;2022-08-01T14:18:04;3.08;;;2.00;;
8574;SDS011;4325;42.520;27.448;2022-08-01T14:20:33;4.70;;;1.90;;
8574;SDS011;4325;42.520;27.448;2022-08-01T14:23:00;4.78;;;2.38;;
8574;SDS011;4325;42.520;27.448;2022-08-01T14:25:28;2.72;;;2.25;;
8574;SDS011;4325;42.520;27.448;2022-08-01T14:27:55;2.45;;;2.03;;
8574;SDS011;4325;42.520;27.448;2022-08-01T14:30:21;5.50;;;2.00;;
8574;SDS011;4325;42.520;27.448;2022-08-01T14:32:48;3.35;;;2.50;;
8574;SDS011;4325;42.520;27.448;2022-08-01T14:35:15;4.63;;;2.38;;
8574;SDS011;4325;42.520;27.448;2022-08-01T14:37:43;4.97;;;2.20;;
8574;SDS011;4325;42.520;27.448;2022-08-01T14:40:10;2.70;;;2.50;;
8574;SDS011;4325;42.520;27.448;2022-08-01T14:42:37;2.38;;;2.20;;
8574;SDS011;4325;42.520;27.448;2022-08-01T14:45:05;3.80;;;2.45;;
8574;SDS011;4325;42.520;27.448;2022-08-01T14:47:34;6.13;;;2.50;;
8574;SDS011;4325;42.520;27.448;2022-08-01T14:50:03;4.33;;;2.47;;
8574;SDS011;4325;42.520;27.448;2022-08-01T14:52:32;6.17;;;3.90;;
8574;SDS011;4325;42.520;27.448;2022-08-01T14:55:00;9.37;;;3.80;;
8574;SDS011;4325;42.520;27.448;2022-08-01T14:57:27;6.40;;;3.67;;
8574;SDS011;4325;42.520;27.448;2022-08-01T14:59:54;18.13;;;3.40;;
8574;SDS011;4325;42.520;27.448;2022-08-01T15:02:21;6.93;;;2.60;;
8574;SDS011;4325;42.520;27.448;2022-08-01T15:04:49;3.97;;;2.15;;
8574;SDS011;4325;42.520;27.448;2022-08-01T15:07:16;4.65;;;2.38;;
8574;SDS011;4325;42.520;27.448;2022-08-01T15:09:43;7.00;;;3.23;;
8574;SDS011;4325;42.520;27.448;2022-08-01T15:12:12;10.90;;;3.08;;
8574;SDS011;4325;42.520;27.448;2022-08-01T15:14:39;3.93;;;2.30;;
8574;SDS011;4325;42.520;27.448;2022-08-01T15:17:14;9.93;;;2.70;;
8574;SDS011;4325;42.520;27.448;2022-08-01T15:19:41;4.30;;;3.57;;
8574;SDS011;4325;42.520;27.448;2022-08-01T15:22:08;3.57;;;2.43;;